Time;durP1;ratioP1;P1;durP2;ratioP2;P2;SDS_P1;SDS_P2;PMS_P1;PMS_P2;Temp;Humidity;BMP_temperature;BMP_pressure;BME280_temperature;BME280_humidity;BME280_pressure;Samples;Min_cycle;Max_cycle;Signal;HPM_P1;HPM_P2
2022/12/14 00:01:16;;;;;;;7.60;6.03;;;0.30;99.90;;;;;;5053489;28;20202;-64
2022/12/14 00:03:43;;;;;;;10.60;6.53;;;0.40;99.90;;;;;;5053230;28;20209;-64
2022/12/14 00:06:11;;;;;;;10.27;6.50;;;0.40;99.90;;;;;;5052800;28;20575;-64
2022/12/14 00:08:38;;;;;;;12.10;6.37;;;0.50;99.90;;;;;;5053421;28;20213;-64
2022/12/14 00:11:05;;;;;;;10.17;6.60;;;0.50;99.90;;;;;;5053216;28;20236;-64
2022/12/14 00:13:32;;;;;;;8.67;6.67;;;0.40;99.90;;;;;;5053336;28;20259;-64
2022/12/14 00:16:03;;;;;;;10.53;6.60;;;0.30;99.90;;;;;;5052421;28;20224;-62
2022/12/14 00:18:31;;;;;;;10.13;6.87;;;0.30;99.90;;;;;;5053006;28;20225;-64
2022/12/14 00:21:04;;;;;;;9.23;6.10;;;0.20;99.90;;;;;;5053248;28;20201;-64
2022/12/14 00:23:31;;;;;;;7.93;6.20;;;0.30;99.90;;;;;;5053214;28;20240;-65
2022/12/14 00:25:57;;;;;;;9.90;6.37;;;0.10;99.90;;;;;;5052353;28;20581;-64
2022/12/14 00:28:24;;;;;;;8.40;6.30;;;0.10;99.90;;;;;;5052769;28;20225;-64
2022/12/14 00:30:56;;;;;;;9.03;6.07;;;0.10;99.90;;;;;;5052681;28;20221;-64
2022/12/14 00:33:23;;;;;;;9.17;6.23;;;0.10;99.90;;;;;;5053135;28;20418;-64
2022/12/14 00:35:51;;;;;;;8.77;5.97;;;0.10;99.90;;;;;;5052274;28;20202;-64
2022/12/14 00:38:18;;;;;;;9.07;6.47;;;0.10;99.90;;;;;;5052546;28;20233;-64
2022/12/14 00:40:44;;;;;;;7.83;5.67;;;0.10;99.90;;;;;;5052705;28;20216;-64
2022/12/14 00:43:11;;;;;;;8.80;6.27;;;0.10;99.90;;;;;;5052586;28;20582;-65
2022/12/14 00:45:38;;;;;;;8.60;6.00;;;0.20;99.90;;;;;;5052071;28;20213;-62
2022/12/14 00:48:05;;;;;;;8.43;6.13;;;0.10;99.90;;;;;;5052637;28;20230;-65
2022/12/14 00:50:32;;;;;;;9.00;5.90;;;0.00;99.90;;;;;;5052477;28;20236;-64
2022/12/14 00:53:00;;;;;;;7.87;5.80;;;0.10;99.90;;;;;;5052518;28;20206;-64
2022/12/14 00:55:27;;;;;;;10.03;6.60;;;0.10;99.90;;;;;;5052525;28;20583;-64
2022/12/14 00:57:53;;;;;;;9.53;6.03;;;0.20;99.90;;;;;;5051550;28;20225;-64
2022/12/14 01:00:20;;;;;;;8.77;6.27;;;0.20;99.90;;;;;;5052194;28;20220;-64
2022/12/14 01:02:47;;;;;;;9.57;6.60;;;0.10;99.90;;;;;;5052479;28;20297;-65
2022/12/14 01:05:14;;;;;;;9.93;6.53;;;0.20;99.90;;;;;;5052305;28;20206;-65
2022/12/14 01:07:40;;;;;;;7.53;5.97;;;0.30;99.90;;;;;;5051461;28;20229;-64
2022/12/14 01:10:09;;;;;;;8.07;6.33;;;0.40;99.90;;;;;;5052034;28;20214;-64
2022/12/14 01:12:36;;;;;;;8.50;6.03;;;0.40;99.90;;;;;;5052062;28;20213;-64
2022/12/14 01:15:03;;;;;;;8.40;6.13;;;0.50;99.90;;;;;;5052621;28;20209;-63
2022/12/14 01:17:29;;;;;;;9.73;6.43;;;0.50;99.90;;;;;;5051691;28;20225;-64
2022/12/14 01:19:56;;;;;;;8.47;6.10;;;0.50;99.90;;;;;;5052086;28;20213;-65
2022/12/14 01:22:23;;;;;;;11.00;6.40;;;0.50;99.90;;;;;;5052037;28;20214;-64
2022/12/14 01:24:49;;;;;;;8.93;6.33;;;0.40;99.90;;;;;;5051919;28;20213;-64
2022/12/14 01:27:18;;;;;;;10.30;5.53;;;0.40;99.90;;;;;;5051482;28;20225;-64
2022/12/14 01:29:44;;;;;;;9.33;6.47;;;0.40;99.90;;;;;;5052073;28;20206;-64
2022/12/14 01:32:11;;;;;;;9.57;6.50;;;0.40;99.90;;;;;;5051948;28;20236;-63
2022/12/14 01:34:38;;;;;;;8.57;6.40;;;0.40;99.90;;;;;;5052098;28;20206;-64
2022/12/14 01:37:04;;;;;;;12.23;7.67;;;0.50;99.90;;;;;;5051628;28;20233;-63
2022/12/14 01:39:31;;;;;;;9.47;6.60;;;0.60;99.90;;;;;;5051932;28;20206;-63
2022/12/14 01:41:58;;;;;;;9.07;6.67;;;0.60;99.90;;;;;;5052178;28;20226;-63
2022/12/14 01:44:53;;;;;;;11.20;6.83;;;0.60;99.90;;;;;;5052288;28;20205;-63
2022/12/14 01:47:26;;;;;;;9.13;6.70;;;0.60;99.90;;;;;;5051232;28;20226;-63
2022/12/14 01:49:57;;;;;;;10.97;7.10;;;0.60;99.90;;;;;;5051767;28;20206;-63
2022/12/14 01:52:30;;;;;;;10.33;6.53;;;0.60;99.90;;;;;;5051801;28;20239;-62
2022/12/14 01:55:01;;;;;;;12.97;7.13;;;0.50;99.90;;;;;;5051704;28;20669;-63
2022/12/14 01:57:33;;;;;;;10.23;6.73;;;0.50;99.90;;;;;;5050922;28;20241;-62
2022/12/14 02:00:02;;;;;;;9.77;6.73;;;0.50;99.90;;;;;;5051754;28;20221;-63
2022/12/14 02:02:29;;;;;;;10.27;6.97;;;0.60;99.90;;;;;;5051566;28;20208;-63
2022/12/14 02:04:59;;;;;;;10.17;7.20;;;0.50;99.90;;;;;;5051720;28;20209;-63
2022/12/14 02:07:28;;;;;;;9.10;6.97;;;0.40;99.90;;;;;;5051005;28;20234;-63
2022/12/14 02:09:59;;;;;;;11.17;7.47;;;0.20;99.90;;;;;;5051741;28;20217;-63
2022/12/14 02:12:29;;;;;;;15.20;7.87;;;0.10;99.90;;;;;;5051523;28;20226;-63
2022/12/14 02:14:56;;;;;;;11.80;7.83;;;0.10;99.90;;;;;;5051414;28;20212;-63
2022/12/14 02:17:24;;;;;;;10.93;8.03;;;0.20;99.90;;;;;;5050889;28;20225;-62
2022/12/14 02:19:51;;;;;;;11.40;8.10;;;0.30;99.90;;;;;;5052358;28;20209;-63
2022/12/14 02:22:57;;;;;;;11.87;8.23;;;0.30;99.90;;;;;;5055475;28;20357;-63
2022/12/14 02:26:00;;;;;;;11.23;7.33;;;0.20;99.90;;;;;;5055273;28;20602;-63
2022/12/14 02:29:19;;;;;;;10.33;7.50;;;0.20;99.90;;;;;;5055309;28;20244;-63
2022/12/14 02:31:57;;;;;;;10.73;7.97;;;0.20;99.90;;;;;;5007743;28;20240;-63
2022/12/14 02:34:35;;;;;;;13.03;8.80;;;0.20;99.90;;;;;;5055216;28;20211;-63
2022/12/14 02:37:10;;;;;;;13.23;8.57;;;0.30;99.90;;;;;;5054295;28;20635;-63
2022/12/14 02:39:45;;;;;;;11.33;8.17;;;0.30;99.90;;;;;;5055478;28;20703;-63
2022/12/14 02:42:14;;;;;;;12.23;7.67;;;0.30;99.90;;;;;;5055194;28;20209;-63
2022/12/14 02:44:51;;;;;;;11.77;7.93;;;0.30;99.90;;;;;;5055052;28;20213;-62
2022/12/14 02:47:25;;;;;;;12.90;8.17;;;0.30;99.90;;;;;;5054314;28;20229;-63
2022/12/14 02:50:01;;;;;;;11.60;7.70;;;0.20;99.90;;;;;;5054923;28;20216;-63
2022/12/14 02:52:38;;;;;;;11.60;8.27;;;0.20;99.90;;;;;;5054637;28;20271;-63
2022/12/14 02:55:10;;;;;;;11.57;8.73;;;0.30;99.90;;;;;;5055000;28;20285;-63
2022/12/14 02:57:42;;;;;;;12.00;8.43;;;0.30;99.90;;;;;;5053894;28;20717;-63
2022/12/14 03:00:10;;;;;;;10.53;7.33;;;0.40;99.90;;;;;;5054779;28;20724;-63
2022/12/14 03:02:41;;;;;;;11.90;8.50;;;0.40;99.90;;;;;;5054684;28;20292;-63
2022/12/14 03:05:09;;;;;;;13.37;9.10;;;0.30;99.90;;;;;;5054812;28;20209;-63
2022/12/14 03:07:42;;;;;;;14.80;9.20;;;0.40;99.90;;;;;;5053929;28;20222;-62
2022/12/14 03:10:19;;;;;;;12.77;9.10;;;0.40;99.90;;;;;;5054585;28;20210;-63
2022/12/14 03:12:50;;;;;;;13.60;9.40;;;0.40;99.90;;;;;;5054435;28;20239;-62
2022/12/14 03:15:20;;;;;;;11.03;8.43;;;0.50;99.90;;;;;;5054916;28;20665;-62
2022/12/14 03:17:52;;;;;;;14.17;9.10;;;0.50;99.90;;;;;;5054261;28;20221;-63
2022/12/14 03:20:24;;;;;;;13.73;9.40;;;0.60;99.90;;;;;;5054227;28;20274;-63
2022/12/14 03:22:54;;;;;;;13.83;9.17;;;0.60;99.90;;;;;;5054411;28;20229;-63
2022/12/14 03:25:26;;;;;;;11.03;8.63;;;0.50;99.90;;;;;;5054321;28;20228;-63
2022/12/14 03:27:59;;;;;;;12.20;8.77;;;0.60;99.90;;;;;;5053494;28;20244;-63
2022/12/14 03:30:26;;;;;;;11.57;8.23;;;0.50;99.90;;;;;;5054312;28;20606;-62
2022/12/14 03:32:58;;;;;;;13.17;8.80;;;0.50;99.90;;;;;;5053078;28;20225;-63
2022/12/14 03:35:29;;;;;;;12.60;9.03;;;0.30;99.90;;;;;;5054184;28;20220;-63
2022/12/14 03:37:59;;;;;;;12.83;9.43;;;0.20;99.90;;;;;;5053566;28;20721;-63
2022/12/14 03:40:30;;;;;;;13.37;8.90;;;0.00;99.90;;;;;;5053980;28;20206;-63
2022/12/14 03:43:05;;;;;;;11.63;9.00;;;-0.10;99.90;;;;;;5054307;28;20206;-63
2022/12/14 03:45:44;;;;;;;12.60;8.40;;;-0.10;99.90;;;;;;5054368;28;20205;-62
2022/12/14 03:48:19;;;;;;;13.33;9.00;;;-0.20;99.90;;;;;;5053417;28;20225;-63
2022/12/14 03:50:52;;;;;;;13.30;9.33;;;-0.20;99.90;;;;;;5053583;28;20209;-63
2022/12/14 03:53:24;;;;;;;14.93;9.80;;;-0.30;99.90;;;;;;5054744;28;20205;-62
2022/12/14 03:56:02;;;;;;;15.43;10.13;;;-0.40;99.90;;;;;;5054500;28;20213;-63
2022/12/14 03:58:37;;;;;;;14.00;9.47;;;-0.40;99.90;;;;;;5054224;28;20229;-62
2022/12/14 04:01:11;;;;;;;14.67;10.33;;;-0.40;99.90;;;;;;5054085;28;20205;-63
2022/12/14 04:03:51;;;;;;;15.03;9.80;;;-0.30;99.90;;;;;;5053822;28;20282;-63
2022/12/14 04:06:25;;;;;;;14.77;10.33;;;-0.20;99.90;;;;;;5053203;28;20595;-62
2022/12/14 04:08:57;;;;;;;14.67;9.80;;;-0.20;99.90;;;;;;5054031;28;20209;-62
2022/12/14 04:20:01;;;;;;;14.40;10.23;;;-0.10;99.90;;;;;;5053174;28;20579;-62
2022/12/14 04:22:32;;;;;;;14.83;10.47;;;-0.10;99.90;;;;;;5053153;28;20201;-62
2022/12/14 04:27:50;;;;;;;14.07;10.73;;;-0.20;99.90;;;;;;5052399;28;20216;-62
2022/12/14 04:30:17;;;;;;;15.47;10.70;;;-0.20;99.90;;;;;;5053405;28;20684;-62
2022/12/14 04:32:48;;;;;;;16.57;10.30;;;-0.20;99.90;;;;;;5053249;28;20233;-63
2022/12/14 04:35:20;;;;;;;13.03;9.50;;;-0.30;99.90;;;;;;5053221;28;20221;-63
2022/12/14 04:37:51;;;;;;;15.40;11.20;;;-0.50;99.90;;;;;;5051891;28;20233;-63
2022/12/14 04:40:21;;;;;;;17.17;11.30;;;-0.50;99.90;;;;;;5052931;28;20205;-62
2022/12/14 04:42:52;;;;;;;16.57;11.93;;;-0.40;99.90;;;;;;5052862;28;20209;-63
2022/12/14 04:45:24;;;;;;;15.83;11.53;;;-0.20;99.90;;;;;;5052897;28;20214;-63
2022/12/14 04:48:00;;;;;;;16.20;11.60;;;-0.10;99.90;;;;;;5052188;28;20236;-63
2022/12/14 04:50:34;;;;;;;16.07;11.57;;;-0.20;99.90;;;;;;5052688;28;20209;-62
2022/12/14 04:53:05;;;;;;;18.17;11.93;;;-0.20;99.90;;;;;;5052392;28;20279;-63
2022/12/14 04:55:36;;;;;;;16.23;12.03;;;-0.20;99.90;;;;;;5052616;28;20595;-63
2022/12/14 04:58:10;;;;;;;19.30;12.50;;;-0.20;99.90;;;;;;5051814;28;20229;-63
2022/12/14 05:00:43;;;;;;;15.20;11.57;;;0.00;99.90;;;;;;5052435;28;20210;-63
2022/12/14 05:03:24;;;;;;;17.13;12.27;;;-0.10;99.90;;;;;;5052382;28;20580;-63
2022/12/14 05:06:01;;;;;;;17.47;12.57;;;0.10;99.90;;;;;;5052213;28;20213;-63
2022/12/14 05:08:45;;;;;;;14.73;10.70;;;0.10;99.90;;;;;;5052151;28;20236;-63
2022/12/14 05:11:20;;;;;;;15.80;11.63;;;0.00;99.90;;;;;;5052465;28;20205;-63
2022/12/14 05:13:49;;;;;;;16.13;11.23;;;0.10;99.90;;;;;;5052809;28;20588;-63
2022/12/14 05:16:17;;;;;;;16.00;11.27;;;0.20;99.90;;;;;;5051791;28;20289;-63
2022/12/14 05:18:44;;;;;;;15.33;11.23;;;0.20;99.90;;;;;;5052540;28;20217;-63
2022/12/14 05:21:45;;;;;;;17.77;11.90;;;0.20;99.90;;;;;;5052546;28;20205;-63
2022/12/14 05:24:01;;;;;;;14.67;10.37;;;0.30;99.90;;;;;;5052306;28;20288;-63
2022/12/14 05:26:28;;;;;;;14.63;11.70;;;0.30;99.90;;;;;;5051756;28;20217;-63
2022/12/14 05:28:55;;;;;;;15.20;11.37;;;0.30;99.90;;;;;;5053022;28;20216;-62
2022/12/14 05:31:22;;;;;;;16.87;11.53;;;0.20;99.90;;;;;;5052138;28;20239;-63
2022/12/14 05:33:49;;;;;;;16.70;11.90;;;0.30;99.90;;;;;;5051944;28;20206;-62
2022/12/14 05:36:18;;;;;;;18.23;12.53;;;0.20;99.90;;;;;;5051385;28;20213;-62
2022/12/14 05:38:45;;;;;;;16.33;11.60;;;0.30;99.90;;;;;;5051761;28;20669;-62
2022/12/14 05:41:12;;;;;;;16.40;11.73;;;0.40;99.90;;;;;;5051760;28;20707;-63
2022/12/14 05:43:38;;;;;;;17.47;11.20;;;0.50;99.90;;;;;;5053212;28;20209;-63
2022/12/14 05:46:06;;;;;;;18.73;11.70;;;0.60;99.90;;;;;;5053659;28;20594;-63
2022/12/14 05:48:34;;;;;;;15.03;10.90;;;0.50;99.90;;;;;;5052375;28;20328;-63
2022/12/14 05:51:05;;;;;;;15.47;11.80;;;0.40;99.90;;;;;;5052098;28;20606;-62
2022/12/14 05:53:33;;;;;;;15.80;11.60;;;0.40;99.90;;;;;;5052786;28;20266;-62
2022/12/14 05:56:00;;;;;;;15.90;10.57;;;0.50;99.90;;;;;;5055070;28;20209;-63
2022/12/14 05:58:27;;;;;;;17.77;11.77;;;0.70;99.90;;;;;;5055367;28;20728;-63
2022/12/14 06:00:54;;;;;;;16.10;11.50;;;0.70;99.90;;;;;;5056407;28;20255;-63
2022/12/14 06:03:21;;;;;;;17.93;11.77;;;0.80;99.90;;;;;;5056196;28;20653;-63
2022/12/14 06:05:48;;;;;;;17.90;12.00;;;0.70;99.90;;;;;;5055740;28;20209;-62
2022/12/14 06:08:14;;;;;;;16.97;12.17;;;0.90;99.90;;;;;;5054579;28;20716;-63
2022/12/14 06:10:42;;;;;;;17.90;12.57;;;0.90;99.90;;;;;;5055655;28;20209;-63
2022/12/14 06:13:09;;;;;;;16.40;11.60;;;0.90;99.90;;;;;;5055499;28;20661;-63
2022/12/14 06:15:36;;;;;;;16.13;11.33;;;0.80;99.90;;;;;;5055293;28;20717;-63
2022/12/14 06:18:03;;;;;;;17.70;10.90;;;0.70;99.90;;;;;;5054970;28;20222;-63
2022/12/14 06:20:29;;;;;;;16.20;12.40;;;0.70;99.90;;;;;;5055200;28;20208;-64
2022/12/14 06:22:56;;;;;;;15.60;11.97;;;0.80;99.90;;;;;;5055118;28;20202;-63
2022/12/14 06:25:23;;;;;;;18.57;12.57;;;0.70;99.90;;;;;;5055479;28;20232;-63
2022/12/14 06:27:54;;;;;;;17.97;12.73;;;0.70;99.90;;;;;;5054748;28;20236;-63
2022/12/14 06:30:21;;;;;;;19.50;13.07;;;0.70;99.90;;;;;;5055192;28;20275;-63
2022/12/14 06:32:47;;;;;;;17.03;12.43;;;0.80;99.90;;;;;;5055053;28;20221;-64
2022/12/14 06:35:14;;;;;;;17.90;12.53;;;0.90;99.90;;;;;;5055003;28;20600;-63
2022/12/14 06:37:41;;;;;;;18.47;13.07;;;1.00;99.90;;;;;;5054351;28;20233;-63
2022/12/14 06:40:09;;;;;;;16.10;12.37;;;0.90;99.90;;;;;;5055055;28;20692;-64
2022/12/14 06:42:36;;;;;;;20.00;12.47;;;0.90;99.90;;;;;;5054773;28;20630;-63
2022/12/14 06:45:05;;;;;;;17.77;12.63;;;0.90;99.90;;;;;;5054780;28;20201;-63
2022/12/14 06:47:31;;;;;;;17.43;12.57;;;0.70;99.90;;;;;;5054312;28;20252;-63
2022/12/14 06:49:58;;;;;;;17.60;12.70;;;0.80;99.90;;;;;;5054733;28;20216;-64
2022/12/14 06:52:25;;;;;;;18.63;12.87;;;0.80;99.90;;;;;;5054774;28;20233;-63
2022/12/14 06:54:52;;;;;;;17.47;12.70;;;0.90;99.90;;;;;;5055124;28;20213;-63
2022/12/14 06:57:18;;;;;;;16.93;12.83;;;1.10;99.90;;;;;;5054143;28;20619;-63
2022/12/14 06:59:45;;;;;;;19.50;13.30;;;1.00;99.90;;;;;;5054621;28;20205;-62
2022/12/14 07:02:13;;;;;;;17.80;13.20;;;0.90;99.90;;;;;;5054447;28;20204;-63
2022/12/14 07:04:41;;;;;;;20.07;13.37;;;0.70;99.90;;;;;;5054665;28;20202;-63
2022/12/14 07:07:09;;;;;;;19.77;13.40;;;0.60;99.90;;;;;;5053879;28;20221;-63
2022/12/14 07:09:36;;;;;;;18.43;13.97;;;0.60;99.90;;;;;;5055075;28;20687;-63
2022/12/14 07:12:02;;;;;;;19.57;13.10;;;0.50;99.90;;;;;;5055195;28;20217;-66
2022/12/14 07:14:29;;;;;;;19.33;13.60;;;0.40;99.90;;;;;;5054818;28;20210;-63
2022/12/14 07:16:56;;;;;;;21.63;14.87;;;0.30;99.90;;;;;;5053646;28;20284;-63
2022/12/14 07:19:24;;;;;;;18.20;12.77;;;0.30;99.90;;;;;;5054938;28;20217;-63
2022/12/14 07:21:51;;;;;;;20.07;13.83;;;0.30;99.90;;;;;;5054665;28;20368;-63
2022/12/14 07:24:18;;;;;;;20.00;14.63;;;0.30;99.90;;;;;;5054525;28;20201;-63
2022/12/14 07:26:45;;;;;;;20.10;12.90;;;0.40;99.90;;;;;;5053668;28;20229;-63
2022/12/14 07:29:13;;;;;;;20.07;14.53;;;0.40;99.90;;;;;;5054287;28;20301;-62
2022/12/14 07:31:40;;;;;;;19.87;14.23;;;0.40;99.90;;;;;;5053948;28;20658;-63
2022/12/14 07:34:07;;;;;;;20.97;14.37;;;0.40;99.90;;;;;;5054220;28;20201;-63
2022/12/14 07:36:35;;;;;;;19.07;13.43;;;0.40;99.90;;;;;;5053997;28;20240;-62
2022/12/14 07:39:02;;;;;;;22.47;14.97;;;0.50;99.90;;;;;;5054000;28;20205;-62
2022/12/14 07:41:31;;;;;;;21.03;14.30;;;0.60;99.90;;;;;;5053877;28;20205;-64
2022/12/14 07:43:59;;;;;;;20.27;14.67;;;0.60;99.90;;;;;;5053713;28;20301;-64
2022/12/14 07:46:27;;;;;;;23.73;16.50;;;0.60;99.90;;;;;;5053143;28;20229;-63
2022/12/14 07:48:56;;;;;;;22.67;14.93;;;0.70;99.90;;;;;;5054005;28;20226;-64
2022/12/14 07:51:25;;;;;;;19.33;13.73;;;1.00;99.90;;;;;;5053777;28;20202;-63
2022/12/14 07:53:54;;;;;;;19.70;15.03;;;1.20;99.90;;;;;;5053881;28;20221;-62
2022/12/14 07:56:23;;;;;;;25.10;17.90;;;1.30;99.90;;;;;;5053281;28;20213;-57
2022/12/14 07:58:50;;;;;;;22.00;14.47;;;1.50;99.90;;;;;;5053493;28;20205;-62
2022/12/14 08:01:19;;;;;;;18.50;14.27;;;1.60;99.90;;;;;;5053837;28;20232;-61
2022/12/14 08:03:48;;;;;;;20.23;14.90;;;1.70;99.90;;;;;;5053372;28;20212;-61
2022/12/14 08:06:17;;;;;;;21.20;14.80;;;1.60;99.90;;;;;;5053209;28;20213;-61
2022/12/14 08:08:44;;;;;;;20.17;14.80;;;1.60;99.90;;;;;;5052346;28;20202;-61
2022/12/14 08:11:13;;;;;;;21.03;14.87;;;1.50;99.90;;;;;;5052895;28;20579;-61
2022/12/14 08:13:42;;;;;;;20.87;14.33;;;1.40;99.90;;;;;;5053178;28;20226;-62
2022/12/14 08:16:11;;;;;;;22.17;15.37;;;1.30;99.90;;;;;;5053074;28;20296;-61
2022/12/14 08:18:38;;;;;;;23.10;15.60;;;1.20;99.90;;;;;;5051712;28;20673;-62
2022/12/14 08:21:06;;;;;;;23.53;16.17;;;1.30;99.90;;;;;;5052930;28;20665;-62
2022/12/14 08:23:34;;;;;;;25.17;16.97;;;1.20;99.90;;;;;;5053025;28;20197;-62
2022/12/14 08:26:01;;;;;;;22.80;16.07;;;1.30;99.90;;;;;;5053277;28;20213;-62
2022/12/14 08:28:32;;;;;;;24.10;16.37;;;1.50;99.90;;;;;;5052534;28;20240;-62
2022/12/14 08:31:04;;;;;;;20.93;15.20;;;1.60;99.90;;;;;;5053085;28;20318;-62
2022/12/14 08:33:32;;;;;;;22.00;16.57;;;1.70;99.90;;;;;;5052995;28;20626;-63
2022/12/14 08:36:05;;;;;;;22.47;17.07;;;1.80;99.90;;;;;;5052661;28;20255;-62
2022/12/14 08:38:31;;;;;;;22.13;16.63;;;1.90;99.90;;;;;;5052272;28;20233;-62
2022/12/14 08:41:02;;;;;;;22.00;15.13;;;1.90;99.90;;;;;;5053425;28;20212;-67
2022/12/14 08:43:30;;;;;;;21.30;15.60;;;2.00;99.90;;;;;;5053114;28;20201;-64
2022/12/14 08:45:57;;;;;;;21.17;17.05;;;1.90;99.90;;;;;;5046638;28;20443;-62
2022/12/14 08:48:23;;;;;;;23.07;16.30;;;2.00;99.90;;;;;;5050587;28;20222;-62
2022/12/14 08:50:51;;;;;;;21.87;15.53;;;2.10;99.90;;;;;;5050972;28;20278;-65
2022/12/14 08:53:18;;;;;;;21.83;15.50;;;2.20;99.90;;;;;;5051685;28;20230;-66
2022/12/14 08:55:45;;;;;;;21.97;15.93;;;2.30;99.90;;;;;;5051276;28;20201;-65
2022/12/14 08:58:12;;;;;;;23.07;15.90;;;2.40;99.90;;;;;;5050967;28;20228;-65
2022/12/14 09:00:40;;;;;;;21.10;15.33;;;2.50;99.90;;;;;;5050819;28;20202;-63
2022/12/14 09:03:07;;;;;;;19.83;14.33;;;2.50;99.90;;;;;;5051189;28;20205;-64
2022/12/14 09:05:35;;;;;;;20.63;14.80;;;2.50;99.90;;;;;;5051016;28;20210;-66
2022/12/14 09:08:01;;;;;;;19.20;14.27;;;2.50;99.90;;;;;;5050722;28;20233;-69
2022/12/14 09:10:28;;;;;;;19.47;14.70;;;2.60;99.90;;;;;;5051149;28;20591;-66
2022/12/14 09:12:55;;;;;;;21.20;14.93;;;2.70;99.90;;;;;;5050894;28;20218;-67
2022/12/14 09:15:21;;;;;;;20.70;15.63;;;2.70;99.90;;;;;;5051066;28;20210;-66
2022/12/14 09:17:50;;;;;;;20.87;16.33;;;2.80;99.90;;;;;;5050803;28;20233;-64
2022/12/14 09:20:17;;;;;;;23.80;16.43;;;2.80;99.90;;;;;;5052197;28;20209;-64
2022/12/14 09:22:44;;;;;;;21.50;15.70;;;2.80;99.90;;;;;;5052115;28;20229;-64
2022/12/14 09:25:11;;;;;;;20.73;15.50;;;3.00;99.90;;;;;;5052486;28;20232;-63
2022/12/14 09:27:38;;;;;;;21.83;15.53;;;3.00;99.90;;;;;;5051367;28;20221;-63
2022/12/14 09:30:05;;;;;;;19.90;14.57;;;3.00;99.90;;;;;;5051073;28;20709;-63
2022/12/14 09:32:32;;;;;;;21.07;14.93;;;3.00;99.90;;;;;;5052452;28;20319;-63
2022/12/14 09:35:00;;;;;;;20.77;15.63;;;2.80;99.90;;;;;;5051915;28;20201;-63
2022/12/14 09:37:27;;;;;;;24.87;15.00;;;2.60;99.90;;;;;;5051103;28;20245;-67
2022/12/14 09:39:53;;;;;;;24.80;16.93;;;2.60;99.90;;;;;;5052338;28;20214;-65
2022/12/14 09:42:38;;;;;;;22.00;15.40;;;2.70;99.90;;;;;;5051843;28;20558;-66
2022/12/14 09:45:16;;;;;;;21.93;15.47;;;2.70;99.90;;;;;;5051893;28;20224;-66
2022/12/14 09:47:49;;;;;;;23.57;16.67;;;2.80;99.90;;;;;;5051025;28;20274;-66
2022/12/14 09:50:20;;;;;;;23.73;16.17;;;2.80;99.90;;;;;;5051763;28;20206;-66
2022/12/14 09:52:49;;;;;;;26.03;16.73;;;2.80;99.90;;;;;;5051627;28;20227;-66
2022/12/14 09:55:20;;;;;;;22.20;16.60;;;2.60;99.90;;;;;;5051486;28;20252;-66
2022/12/14 09:57:49;;;;;;;23.17;16.70;;;2.70;99.90;;;;;;5051130;28;20247;-65
2022/12/14 10:00:18;;;;;;;24.20;16.47;;;2.70;99.90;;;;;;5051741;28;20201;-65
2022/12/14 10:03:08;;;;;;;24.10;16.80;;;2.70;99.90;;;;;;5051771;28;20201;-66
2022/12/14 10:05:54;;;;;;;25.93;17.17;;;2.80;99.90;;;;;;5051821;28;20209;-66
2022/12/14 10:08:26;;;;;;;26.67;16.17;;;2.90;99.90;;;;;;5051220;28;20236;-65
2022/12/14 10:11:01;;;;;;;21.47;16.43;;;3.10;99.90;;;;;;5051744;28;20240;-66
2022/12/14 10:13:36;;;;;;;23.37;16.73;;;3.20;99.90;;;;;;5051621;28;20232;-65
2022/12/14 10:16:14;;;;;;;20.30;15.53;;;3.30;99.90;;;;;;5051600;28;20670;-65
2022/12/14 10:18:54;;;;;;;24.53;16.87;;;3.40;99.90;;;;;;5051230;28;20205;-66
2022/12/14 10:21:25;;;;;;;20.50;15.60;;;3.30;99.90;;;;;;5051730;28;20213;-65
2022/12/14 10:23:56;;;;;;;24.87;16.63;;;3.40;99.90;;;;;;5051675;28;20213;-66
2022/12/14 10:26:30;;;;;;;24.63;16.50;;;3.40;99.90;;;;;;5051579;28;20213;-66
2022/12/14 10:29:01;;;;;;;23.00;16.70;;;3.40;99.90;;;;;;5051426;28;20216;-66
2022/12/14 10:31:35;;;;;;;26.83;17.93;;;3.40;99.90;;;;;;5051808;28;20217;-65
2022/12/14 10:34:14;;;;;;;23.63;16.90;;;3.30;99.90;;;;;;5051435;28;20248;-65
2022/12/14 10:36:51;;;;;;;26.00;17.67;;;3.40;99.90;;;;;;5050393;28;20747;-62
2022/12/14 10:39:22;;;;;;;24.27;17.70;;;3.40;99.90;;;;;;5051207;28;20237;-63
2022/12/14 10:41:58;;;;;;;23.83;16.67;;;3.40;99.90;;;;;;5053232;28;20212;-63
2022/12/14 10:44:34;;;;;;;21.47;16.63;;;3.20;99.90;;;;;;5055087;28;20201;-63
2022/12/14 10:47:09;;;;;;;22.70;17.10;;;3.10;99.90;;;;;;5054120;28;20222;-63
2022/12/14 10:49:41;;;;;;;24.13;18.23;;;3.10;99.90;;;;;;5054731;28;20233;-63
2022/12/14 10:52:16;;;;;;;25.93;18.17;;;3.10;99.90;;;;;;5055202;28;20217;-63
2022/12/14 10:54:47;;;;;;;25.63;18.07;;;3.10;99.90;;;;;;5054992;28;20225;-63
2022/12/14 10:57:18;;;;;;;26.83;17.67;;;3.10;99.90;;;;;;5054155;28;20261;-63
2022/12/14 10:59:45;;;;;;;25.80;18.50;;;3.10;99.90;;;;;;5054822;28;20251;-65
2022/12/14 11:02:15;;;;;;;24.13;18.03;;;3.20;99.90;;;;;;5054726;28;20209;-63
2022/12/14 11:04:51;;;;;;;25.43;18.03;;;3.40;99.90;;;;;;5055452;28;20237;-63
2022/12/14 11:07:21;;;;;;;26.50;18.33;;;3.60;99.90;;;;;;5054124;28;20233;-63
2022/12/14 11:09:48;;;;;;;25.73;17.33;;;3.70;99.90;;;;;;5054926;28;20206;-63
2022/12/14 11:12:21;;;;;;;24.23;17.60;;;3.70;99.90;;;;;;5054568;28;20205;-65
2022/12/14 11:14:54;;;;;;;26.37;17.97;;;3.70;99.90;;;;;;5054478;28;20226;-62
2022/12/14 11:17:33;;;;;;;22.70;16.17;;;3.90;99.90;;;;;;5053734;28;20319;-63
2022/12/14 11:20:17;;;;;;;25.10;17.60;;;4.00;99.90;;;;;;5054379;28;20216;-66
2022/12/14 11:22:46;;;;;;;24.47;16.90;;;4.10;99.90;;;;;;5054372;28;20209;-63
2022/12/14 11:25:28;;;;;;;26.07;17.63;;;4.20;99.90;;;;;;5054579;28;20206;-64
2022/12/14 11:27:55;;;;;;;23.33;17.53;;;4.30;99.90;;;;;;5053593;28;20236;-65
2022/12/14 11:30:22;;;;;;;24.03;16.87;;;4.30;99.90;;;;;;5054252;28;20213;-64
2022/12/14 11:32:49;;;;;;;21.33;16.27;;;4.30;99.90;;;;;;5054037;28;20212;-61
2022/12/14 11:35:17;;;;;;;23.20;17.37;;;4.30;99.90;;;;;;5053988;28;20587;-61
2022/12/14 11:37:48;;;;;;;24.53;17.50;;;4.40;99.90;;;;;;5048172;28;20264;-61
2022/12/14 11:40:21;;;;;;;25.17;17.07;;;4.50;99.90;;;;;;5052505;28;20536;-64
2022/12/14 11:42:49;;;;;;;20.50;16.13;;;4.70;99.90;;;;;;5052737;28;20209;-62
2022/12/14 11:45:29;;;;;;;22.00;16.17;;;4.90;99.90;;;;;;5052549;28;20209;-63
2022/12/14 11:48:17;;;;;;;24.50;16.80;;;5.00;99.90;;;;;;5051525;28;20312;-68
2022/12/14 11:50:45;;;;;;;26.33;17.90;;;5.20;99.90;;;;;;5052383;28;20212;-61
2022/12/14 11:53:15;;;;;;;24.03;17.00;;;5.20;99.90;;;;;;5051518;28;20247;-65
2022/12/14 11:55:45;;;;;;;23.47;16.90;;;5.10;99.90;;;;;;5053029;28;20225;-63
2022/12/14 11:58:17;;;;;;;23.77;17.30;;;4.90;99.90;;;;;;5051246;28;20221;-64
2022/12/14 12:00:49;;;;;;;23.70;17.07;;;4.80;99.90;;;;;;5052221;28;20560;-62
2022/12/14 12:03:23;;;;;;;22.47;17.77;;;4.80;99.90;;;;;;5052717;28;20431;-63
2022/12/14 12:05:50;;;;;;;21.63;16.57;;;4.80;99.90;;;;;;5052647;28;20213;-64
2022/12/14 12:08:24;;;;;;;22.40;16.97;;;4.90;99.90;;;;;;5052327;28;20574;-65
2022/12/14 12:10:54;;;;;;;24.03;16.63;;;5.00;99.90;;;;;;5051900;28;20661;-66
2022/12/14 12:13:26;;;;;;;23.63;16.67;;;4.90;99.90;;;;;;5053070;28;20236;-68
2022/12/14 12:15:56;;;;;;;21.23;15.53;;;4.90;99.90;;;;;;5054598;28;20201;-62
2022/12/14 12:18:28;;;;;;;23.47;17.23;;;5.00;99.90;;;;;;5052766;28;20222;-62
2022/12/14 12:20:59;;;;;;;19.90;15.23;;;5.20;99.90;;;;;;5052807;28;20820;-61
2022/12/14 12:23:35;;;;;;;22.33;16.27;;;5.30;99.90;;;;;;5052384;28;20202;-61
2022/12/14 12:26:10;;;;;;;24.40;16.93;;;5.40;99.90;;;;;;5052098;28;20205;-63
2022/12/14 12:28:43;;;;;;;21.53;16.37;;;5.10;99.90;;;;;;5051385;28;20424;-63
2022/12/14 12:31:18;;;;;;;22.33;16.30;;;5.10;99.90;;;;;;5051359;28;20684;-61
2022/12/14 12:33:49;;;;;;;24.27;17.00;;;5.00;99.90;;;;;;5051715;28;20704;-64
2022/12/14 12:36:19;;;;;;;22.83;17.20;;;5.20;99.90;;;;;;5051569;28;20209;-61
2022/12/14 12:38:56;;;;;;;29.10;17.43;;;5.30;99.90;;;;;;5051108;28;20217;-63
2022/12/14 12:41:29;;;;;;;25.50;17.47;;;5.00;99.90;;;;;;5051445;28;20209;-62
2022/12/14 12:44:05;;;;;;;24.07;17.37;;;4.40;99.90;;;;;;5051729;28;20554;-62
2022/12/14 12:46:37;;;;;;;24.33;17.97;;;4.20;99.90;;;;;;5051636;28;20220;-65
2022/12/14 12:49:09;;;;;;;24.90;18.60;;;4.10;99.90;;;;;;5050900;28;20302;-65
2022/12/14 12:51:44;;;;;;;23.77;17.73;;;4.20;99.90;;;;;;5051738;28;20213;-63
2022/12/14 12:54:17;;;;;;;22.83;17.37;;;4.10;99.90;;;;;;5051344;28;20599;-63
2022/12/14 12:56:47;;;;;;;27.13;17.80;;;3.90;99.90;;;;;;5051441;28;20720;-62
2022/12/14 12:59:19;;;;;;;38.00;25.80;;;3.70;99.90;;;;;;5050789;28;20216;-65
2022/12/14 13:01:50;;;;;;;25.80;18.77;;;4.20;99.90;;;;;;5051905;28;20209;-64
2022/12/14 13:04:26;;;;;;;22.27;17.73;;;3.70;99.90;;;;;;5047346;28;20202;-66
2022/12/14 13:06:56;;;;;;;27.07;18.80;;;3.60;99.90;;;;;;5035240;28;20250;-64
2022/12/14 13:09:35;;;;;;;24.23;18.07;;;3.40;99.90;;;;;;5031615;28;20210;-63